sensor_id;sensor_type;location;lat;lon;timestamp;P1;durP1;ratioP1;P2;durP2;ratioP2
57551;SDS011;43379;48.160;14.036;2022-07-22T00:00:22;20.80;;;19.00;;
57551;SDS011;43379;48.160;14.036;2022-07-22T00:02:48;20.40;;;18.70;;
57551;SDS011;43379;48.160;14.036;2022-07-22T00:05:13;21.47;;;19.57;;
57551;SDS011;43379;48.160;14.036;2022-07-22T00:07:39;21.60;;;19.80;;
57551;SDS011;43379;48.160;14.036;2022-07-22T00:10:06;20.60;;;18.90;;
57551;SDS011;43379;48.160;14.036;2022-07-22T00:12:33;21.30;;;19.40;;
57551;SDS011;43379;48.160;14.036;2022-07-22T00:14:59;22.70;;;20.70;;
57551;SDS011;43379;48.160;14.036;2022-07-22T00:17:25;21.13;;;19.33;;
57551;SDS011;43379;48.160;14.036;2022-07-22T00:19:50;20.80;;;19.00;;
57551;SDS011;43379;48.160;14.036;2022-07-22T00:22:16;21.50;;;19.87;;
57551;SDS011;43379;48.160;14.036;2022-07-22T00:24:42;20.67;;;19.07;;
57551;SDS011;43379;48.160;14.036;2022-07-22T00:27:07;22.07;;;20.27;;
57551;SDS011;43379;48.160;14.036;2022-07-22T00:29:33;21.83;;;20.13;;
57551;SDS011;43379;48.160;14.036;2022-07-22T00:31:59;21.10;;;19.27;;
57551;SDS011;43379;48.160;14.036;2022-07-22T00:34:24;22.20;;;20.43;;
57551;SDS011;43379;48.160;14.036;2022-07-22T00:36:51;22.83;;;20.93;;
57551;SDS011;43379;48.160;14.036;2022-07-22T00:39:17;21.83;;;20.07;;
57551;SDS011;43379;48.160;14.036;2022-07-22T00:41:43;22.10;;;20.50;;
57551;SDS011;43379;48.160;14.036;2022-07-22T00:44:09;21.70;;;19.93;;
57551;SDS011;43379;48.160;14.036;2022-07-22T00:46:36;21.20;;;19.50;;
57551;SDS011;43379;48.160;14.036;2022-07-22T00:49:03;22.63;;;20.60;;
57551;SDS011;43379;48.160;14.036;2022-07-22T00:51:30;23.43;;;21.40;;
57551;SDS011;43379;48.160;14.036;2022-07-22T00:53:57;20.53;;;18.73;;
57551;SDS011;43379;48.160;14.036;2022-07-22T00:56:24;20.67;;;19.07;;
57551;SDS011;43379;48.160;14.036;2022-07-22T00:58:50;21.10;;;19.50;;
57551;SDS011;43379;48.160;14.036;2022-07-22T01:01:17;22.13;;;20.30;;
57551;SDS011;43379;48.160;14.036;2022-07-22T01:03:43;22.33;;;20.33;;
57551;SDS011;43379;48.160;14.036;2022-07-22T01:06:09;22.90;;;21.10;;
57551;SDS011;43379;48.160;14.036;2022-07-22T01:08:36;21.93;;;20.30;;
57551;SDS011;43379;48.160;14.036;2022-07-22T01:13:58;23.23;;;21.03;;
57551;SDS011;43379;48.160;14.036;2022-07-22T01:16:24;22.20;;;20.40;;
57551;SDS011;43379;48.160;14.036;2022-07-22T01:18:50;22.67;;;20.70;;
57551;SDS011;43379;48.160;14.036;2022-07-22T01:21:16;22.70;;;20.70;;
57551;SDS011;43379;48.160;14.036;2022-07-22T01:23:42;24.47;;;22.67;;
57551;SDS011;43379;48.160;14.036;2022-07-22T01:26:08;23.60;;;21.30;;
57551;SDS011;43379;48.160;14.036;2022-07-22T01:28:34;25.13;;;23.20;;
57551;SDS011;43379;48.160;14.036;2022-07-22T01:31:00;21.93;;;19.93;;
57551;SDS011;43379;48.160;14.036;2022-07-22T01:33:26;25.33;;;23.03;;
57551;SDS011;43379;48.160;14.036;2022-07-22T01:35:51;23.30;;;21.33;;
57551;SDS011;43379;48.160;14.036;2022-07-22T01:38:17;22.60;;;20.80;;
57551;SDS011;43379;48.160;14.036;2022-07-22T01:40:43;24.30;;;22.40;;
57551;SDS011;43379;48.160;14.036;2022-07-22T01:43:10;23.73;;;21.63;;
57551;SDS011;43379;48.160;14.036;2022-07-22T01:45:36;24.80;;;22.80;;
57551;SDS011;43379;48.160;14.036;2022-07-22T01:48:02;25.23;;;23.03;;
57551;SDS011;43379;48.160;14.036;2022-07-22T01:50:28;24.77;;;22.67;;
57551;SDS011;43379;48.160;14.036;2022-07-22T01:52:54;25.53;;;23.53;;
57551;SDS011;43379;48.160;14.036;2022-07-22T01:55:20;27.83;;;25.53;;
57551;SDS011;43379;48.160;14.036;2022-07-22T01:57:46;27.10;;;24.63;;
57551;SDS011;43379;48.160;14.036;2022-07-22T02:00:12;25.03;;;23.03;;
57551;SDS011;43379;48.160;14.036;2022-07-22T02:02:38;26.13;;;24.13;;
57551;SDS011;43379;48.160;14.036;2022-07-22T02:05:04;24.23;;;22.33;;
57551;SDS011;43379;48.160;14.036;2022-07-22T02:07:31;25.00;;;23.00;;
57551;SDS011;43379;48.160;14.036;2022-07-22T02:09:57;23.60;;;21.80;;
57551;SDS011;43379;48.160;14.036;2022-07-22T02:12:22;25.10;;;22.80;;
57551;SDS011;43379;48.160;14.036;2022-07-22T02:14:48;25.00;;;22.90;;
57551;SDS011;43379;48.160;14.036;2022-07-22T02:17:14;25.07;;;22.73;;
57551;SDS011;43379;48.160;14.036;2022-07-22T02:19:40;24.23;;;22.33;;
57551;SDS011;43379;48.160;14.036;2022-07-22T02:22:06;25.40;;;23.30;;
57551;SDS011;43379;48.160;14.036;2022-07-22T02:24:32;23.70;;;21.90;;
57551;SDS011;43379;48.160;14.036;2022-07-22T02:26:58;24.73;;;22.83;;
57551;SDS011;43379;48.160;14.036;2022-07-22T02:29:24;22.10;;;20.40;;
57551;SDS011;43379;48.160;14.036;2022-07-22T02:34:26;22.90;;;21.07;;
57551;SDS011;43379;48.160;14.036;2022-07-22T02:36:52;24.67;;;22.57;;
57551;SDS011;43379;48.160;14.036;2022-07-22T02:39:18;23.63;;;21.63;;
57551;SDS011;43379;48.160;14.036;2022-07-22T02:41:43;24.13;;;22.07;;
57551;SDS011;43379;48.160;14.036;2022-07-22T02:44:09;24.20;;;22.10;;
57551;SDS011;43379;48.160;14.036;2022-07-22T02:46:35;24.70;;;22.70;;
57551;SDS011;43379;48.160;14.036;2022-07-22T02:49:01;23.77;;;21.80;;
57551;SDS011;43379;48.160;14.036;2022-07-22T02:51:29;24.30;;;22.30;;
57551;SDS011;43379;48.160;14.036;2022-07-22T02:53:55;23.50;;;21.80;;
57551;SDS011;43379;48.160;14.036;2022-07-22T02:56:21;25.07;;;23.17;;
57551;SDS011;43379;48.160;14.036;2022-07-22T02:58:46;22.83;;;21.03;;
57551;SDS011;43379;48.160;14.036;2022-07-22T03:01:12;24.03;;;22.10;;
57551;SDS011;43379;48.160;14.036;2022-07-22T03:03:38;23.80;;;21.80;;
57551;SDS011;43379;48.160;14.036;2022-07-22T03:06:04;23.97;;;21.90;;
57551;SDS011;43379;48.160;14.036;2022-07-22T03:08:30;24.23;;;22.30;;
57551;SDS011;43379;48.160;14.036;2022-07-22T03:10:56;23.77;;;21.93;;
57551;SDS011;43379;48.160;14.036;2022-07-22T03:13:21;24.27;;;22.47;;
57551;SDS011;43379;48.160;14.036;2022-07-22T03:15:47;22.83;;;21.10;;
57551;SDS011;43379;48.160;14.036;2022-07-22T03:18:13;24.50;;;22.30;;
57551;SDS011;43379;48.160;14.036;2022-07-22T03:20:38;24.00;;;22.07;;
57551;SDS011;43379;48.160;14.036;2022-07-22T03:23:04;24.67;;;22.53;;
57551;SDS011;43379;48.160;14.036;2022-07-22T03:25:30;24.67;;;22.60;;
57551;SDS011;43379;48.160;14.036;2022-07-22T03:27:57;23.93;;;22.00;;
57551;SDS011;43379;48.160;14.036;2022-07-22T03:30:23;23.13;;;21.23;;
57551;SDS011;43379;48.160;14.036;2022-07-22T03:32:49;22.57;;;20.77;;
57551;SDS011;43379;48.160;14.036;2022-07-22T03:35:15;23.50;;;21.60;;
57551;SDS011;43379;48.160;14.036;2022-07-22T03:37:41;23.70;;;21.70;;
57551;SDS011;43379;48.160;14.036;2022-07-22T03:40:08;23.67;;;21.77;;
57551;SDS011;43379;48.160;14.036;2022-07-22T03:42:34;23.80;;;21.97;;
57551;SDS011;43379;48.160;14.036;2022-07-22T03:45:00;24.47;;;22.37;;
57551;SDS011;43379;48.160;14.036;2022-07-22T03:47:26;23.27;;;21.37;;
57551;SDS011;43379;48.160;14.036;2022-07-22T03:49:52;23.93;;;21.93;;
57551;SDS011;43379;48.160;14.036;2022-07-22T03:52:18;24.40;;;22.37;;
57551;SDS011;43379;48.160;14.036;2022-07-22T03:54:44;25.67;;;23.60;;
57551;SDS011;43379;48.160;14.036;2022-07-22T03:57:09;24.77;;;22.77;;
57551;SDS011;43379;48.160;14.036;2022-07-22T03:59:36;22.53;;;20.93;;
57551;SDS011;43379;48.160;14.036;2022-07-22T04:02:02;22.00;;;20.30;;
57551;SDS011;43379;48.160;14.036;2022-07-22T04:04:28;23.53;;;21.70;;
57551;SDS011;43379;48.160;14.036;2022-07-22T04:06:54;22.73;;;20.93;;
57551;SDS011;43379;48.160;14.036;2022-07-22T04:09:20;22.60;;;20.90;;
57551;SDS011;43379;48.160;14.036;2022-07-22T04:11:45;23.33;;;21.53;;
57551;SDS011;43379;48.160;14.036;2022-07-22T04:14:11;21.00;;;19.20;;
57551;SDS011;43379;48.160;14.036;2022-07-22T04:16:37;23.23;;;21.53;;
57551;SDS011;43379;48.160;14.036;2022-07-22T04:19:03;21.20;;;19.63;;
57551;SDS011;43379;48.160;14.036;2022-07-22T04:21:29;22.17;;;20.47;;
57551;SDS011;43379;48.160;14.036;2022-07-22T04:23:55;20.90;;;19.20;;
57551;SDS011;43379;48.160;14.036;2022-07-22T04:26:21;21.43;;;19.97;;
57551;SDS011;43379;48.160;14.036;2022-07-22T04:28:47;23.00;;;21.20;;
57551;SDS011;43379;48.160;14.036;2022-07-22T04:31:13;23.33;;;21.53;;
57551;SDS011;43379;48.160;14.036;2022-07-22T04:33:39;22.23;;;20.60;;
57551;SDS011;43379;48.160;14.036;2022-07-22T04:36:05;24.37;;;22.47;;
57551;SDS011;43379;48.160;14.036;2022-07-22T04:38:31;23.90;;;22.00;;
57551;SDS011;43379;48.160;14.036;2022-07-22T04:40:57;22.77;;;21.03;;
57551;SDS011;43379;48.160;14.036;2022-07-22T04:43:23;21.47;;;19.77;;
57551;SDS011;43379;48.160;14.036;2022-07-22T04:45:48;21.93;;;20.27;;
57551;SDS011;43379;48.160;14.036;2022-07-22T04:48:14;20.13;;;18.63;;
57551;SDS011;43379;48.160;14.036;2022-07-22T04:50:40;20.80;;;19.20;;
57551;SDS011;43379;48.160;14.036;2022-07-22T04:53:05;22.70;;;20.90;;
57551;SDS011;43379;48.160;14.036;2022-07-22T04:55:31;20.53;;;19.03;;
57551;SDS011;43379;48.160;14.036;2022-07-22T04:57:57;22.30;;;20.47;;
57551;SDS011;43379;48.160;14.036;2022-07-22T05:00:22;22.97;;;21.07;;
57551;SDS011;43379;48.160;14.036;2022-07-22T05:02:49;22.77;;;21.07;;
57551;SDS011;43379;48.160;14.036;2022-07-22T05:05:15;20.73;;;19.23;;
57551;SDS011;43379;48.160;14.036;2022-07-22T05:07:40;21.50;;;19.90;;
57551;SDS011;43379;48.160;14.036;2022-07-22T05:10:06;22.50;;;20.63;;
57551;SDS011;43379;48.160;14.036;2022-07-22T05:12:32;21.03;;;19.43;;
57551;SDS011;43379;48.160;14.036;2022-07-22T05:14:58;21.23;;;19.53;;
57551;SDS011;43379;48.160;14.036;2022-07-22T05:17:24;19.87;;;18.30;;
57551;SDS011;43379;48.160;14.036;2022-07-22T05:19:49;19.80;;;18.20;;
57551;SDS011;43379;48.160;14.036;2022-07-22T05:22:15;19.73;;;18.17;;
57551;SDS011;43379;48.160;14.036;2022-07-22T05:24:41;21.50;;;19.73;;
57551;SDS011;43379;48.160;14.036;2022-07-22T05:27:07;21.57;;;19.73;;
57551;SDS011;43379;48.160;14.036;2022-07-22T05:29:32;22.10;;;20.30;;
57551;SDS011;43379;48.160;14.036;2022-07-22T05:31:58;21.97;;;20.20;;
57551;SDS011;43379;48.160;14.036;2022-07-22T05:34:24;24.47;;;22.60;;
57551;SDS011;43379;48.160;14.036;2022-07-22T05:36:49;24.77;;;22.83;;
57551;SDS011;43379;48.160;14.036;2022-07-22T05:39:15;24.40;;;22.37;;
57551;SDS011;43379;48.160;14.036;2022-07-22T05:41:41;24.47;;;22.47;;
57551;SDS011;43379;48.160;14.036;2022-07-22T05:44:06;24.77;;;22.60;;
57551;SDS011;43379;48.160;14.036;2022-07-22T05:46:32;25.50;;;23.30;;
57551;SDS011;43379;48.160;14.036;2022-07-22T05:48:57;24.60;;;22.60;;
57551;SDS011;43379;48.160;14.036;2022-07-22T05:51:23;24.27;;;22.37;;
57551;SDS011;43379;48.160;14.036;2022-07-22T05:53:49;26.50;;;23.90;;
57551;SDS011;43379;48.160;14.036;2022-07-22T05:56:15;26.00;;;24.00;;
57551;SDS011;43379;48.160;14.036;2022-07-22T05:58:41;25.63;;;23.40;;
57551;SDS011;43379;48.160;14.036;2022-07-22T06:01:07;26.50;;;24.20;;
57551;SDS011;43379;48.160;14.036;2022-07-22T06:03:37;27.10;;;24.90;;
57551;SDS011;43379;48.160;14.036;2022-07-22T06:06:03;25.57;;;23.37;;
57551;SDS011;43379;48.160;14.036;2022-07-22T06:08:31;24.00;;;21.90;;
57551;SDS011;43379;48.160;14.036;2022-07-22T06:10:57;27.20;;;24.80;;
57551;SDS011;43379;48.160;14.036;2022-07-22T06:13:24;24.57;;;22.50;;
57551;SDS011;43379;48.160;14.036;2022-07-22T06:15:50;24.63;;;22.40;;
57551;SDS011;43379;48.160;14.036;2022-07-22T06:18:16;25.87;;;23.50;;
57551;SDS011;43379;48.160;14.036;2022-07-22T06:20:42;24.10;;;21.93;;
57551;SDS011;43379;48.160;14.036;2022-07-22T06:23:08;26.53;;;24.57;;
57551;SDS011;43379;48.160;14.036;2022-07-22T06:25:34;26.07;;;24.07;;
57551;SDS011;43379;48.160;14.036;2022-07-22T06:28:00;23.73;;;21.93;;
57551;SDS011;43379;48.160;14.036;2022-07-22T06:30:26;23.73;;;21.83;;
57551;SDS011;43379;48.160;14.036;2022-07-22T06:32:51;26.07;;;23.67;;
57551;SDS011;43379;48.160;14.036;2022-07-22T06:35:18;23.73;;;22.03;;
57551;SDS011;43379;48.160;14.036;2022-07-22T06:37:43;23.50;;;21.67;;
57551;SDS011;43379;48.160;14.036;2022-07-22T06:40:09;23.27;;;21.43;;
57551;SDS011;43379;48.160;14.036;2022-07-22T06:42:35;20.10;;;18.47;;
57551;SDS011;43379;48.160;14.036;2022-07-22T06:45:01;21.80;;;20.10;;
57551;SDS011;43379;48.160;14.036;2022-07-22T06:47:28;22.07;;;20.33;;
57551;SDS011;43379;48.160;14.036;2022-07-22T06:49:54;19.90;;;18.43;;
57551;SDS011;43379;48.160;14.036;2022-07-22T06:52:20;20.67;;;18.93;;
57551;SDS011;43379;48.160;14.036;2022-07-22T06:54:45;20.30;;;18.83;;
57551;SDS011;43379;48.160;14.036;2022-07-22T06:57:11;20.27;;;18.63;;
57551;SDS011;43379;48.160;14.036;2022-07-22T06:59:36;21.97;;;20.27;;
57551;SDS011;43379;48.160;14.036;2022-07-22T07:02:02;21.63;;;19.83;;
57551;SDS011;43379;48.160;14.036;2022-07-22T07:04:28;21.23;;;19.23;;
57551;SDS011;43379;48.160;14.036;2022-07-22T07:06:54;20.07;;;18.37;;
57551;SDS011;43379;48.160;14.036;2022-07-22T07:09:20;23.77;;;21.80;;
57551;SDS011;43379;48.160;14.036;2022-07-22T07:11:46;18.23;;;16.83;;
57551;SDS011;43379;48.160;14.036;2022-07-22T07:14:11;20.47;;;18.90;;
57551;SDS011;43379;48.160;14.036;2022-07-22T07:16:37;16.67;;;15.47;;
57551;SDS011;43379;48.160;14.036;2022-07-22T07:19:03;19.03;;;17.40;;
57551;SDS011;43379;48.160;14.036;2022-07-22T07:21:29;24.30;;;22.37;;
57551;SDS011;43379;48.160;14.036;2022-07-22T07:23:55;21.60;;;19.90;;
57551;SDS011;43379;48.160;14.036;2022-07-22T07:26:20;21.37;;;19.70;;
57551;SDS011;43379;48.160;14.036;2022-07-22T07:28:46;21.33;;;19.03;;
57551;SDS011;43379;48.160;14.036;2022-07-22T07:31:12;18.73;;;17.33;;
57551;SDS011;43379;48.160;14.036;2022-07-22T07:33:38;18.40;;;17.20;;
57551;SDS011;43379;48.160;14.036;2022-07-22T07:36:03;20.43;;;18.90;;
57551;SDS011;43379;48.160;14.036;2022-07-22T07:38:30;18.60;;;17.30;;
57551;SDS011;43379;48.160;14.036;2022-07-22T07:40:55;17.33;;;15.67;;
57551;SDS011;43379;48.160;14.036;2022-07-22T07:43:21;20.03;;;18.30;;
57551;SDS011;43379;48.160;14.036;2022-07-22T07:45:47;16.70;;;15.20;;
57551;SDS011;43379;48.160;14.036;2022-07-22T07:48:13;17.77;;;16.33;;
57551;SDS011;43379;48.160;14.036;2022-07-22T07:50:39;19.20;;;17.50;;
57551;SDS011;43379;48.160;14.036;2022-07-22T07:53:05;17.93;;;16.50;;
57551;SDS011;43379;48.160;14.036;2022-07-22T07:55:31;14.83;;;13.80;;
57551;SDS011;43379;48.160;14.036;2022-07-22T07:58:01;15.20;;;14.10;;
57551;SDS011;43379;48.160;14.036;2022-07-22T08:00:26;16.33;;;15.00;;
57551;SDS011;43379;48.160;14.036;2022-07-22T08:02:54;16.47;;;15.17;;
57551;SDS011;43379;48.160;14.036;2022-07-22T08:05:20;17.03;;;15.60;;
57551;SDS011;43379;48.160;14.036;2022-07-22T08:07:46;16.17;;;14.97;;
57551;SDS011;43379;48.160;14.036;2022-07-22T08:10:12;17.83;;;16.40;;
57551;SDS011;43379;48.160;14.036;2022-07-22T08:12:39;16.30;;;14.93;;
57551;SDS011;43379;48.160;14.036;2022-07-22T08:15:05;16.47;;;15.27;;
57551;SDS011;43379;48.160;14.036;2022-07-22T08:17:32;16.10;;;14.90;;
57551;SDS011;43379;48.160;14.036;2022-07-22T08:19:58;15.00;;;14.00;;
57551;SDS011;43379;48.160;14.036;2022-07-22T08:22:24;15.50;;;14.30;;
57551;SDS011;43379;48.160;14.036;2022-07-22T08:24:50;17.23;;;15.83;;
57551;SDS011;43379;48.160;14.036;2022-07-22T08:27:16;17.07;;;15.77;;
57551;SDS011;43379;48.160;14.036;2022-07-22T08:29:42;17.57;;;16.33;;
57551;SDS011;43379;48.160;14.036;2022-07-22T08:32:08;16.13;;;14.80;;
57551;SDS011;43379;48.160;14.036;2022-07-22T08:34:34;18.33;;;16.83;;
57551;SDS011;43379;48.160;14.036;2022-07-22T08:37:00;14.97;;;13.87;;
57551;SDS011;43379;48.160;14.036;2022-07-22T08:39:26;16.70;;;15.30;;
57551;SDS011;43379;48.160;14.036;2022-07-22T08:41:51;16.90;;;15.73;;
57551;SDS011;43379;48.160;14.036;2022-07-22T08:44:17;17.73;;;16.43;;
57551;SDS011;43379;48.160;14.036;2022-07-22T08:46:44;16.00;;;14.80;;
57551;SDS011;43379;48.160;14.036;2022-07-22T08:49:12;16.87;;;15.37;;
57551;SDS011;43379;48.160;14.036;2022-07-22T08:51:39;16.57;;;15.30;;
57551;SDS011;43379;48.160;14.036;2022-07-22T08:54:04;16.17;;;14.63;;
57551;SDS011;43379;48.160;14.036;2022-07-22T08:56:30;17.80;;;16.30;;
57551;SDS011;43379;48.160;14.036;2022-07-22T08:58:56;17.10;;;15.80;;
57551;SDS011;43379;48.160;14.036;2022-07-22T09:01:22;16.77;;;15.17;;
57551;SDS011;43379;48.160;14.036;2022-07-22T09:03:48;14.87;;;13.53;;
57551;SDS011;43379;48.160;14.036;2022-07-22T09:06:16;15.10;;;13.67;;
57551;SDS011;43379;48.160;14.036;2022-07-22T09:08:59;15.00;;;13.97;;
57551;SDS011;43379;48.160;14.036;2022-07-22T09:11:30;17.83;;;16.60;;
57551;SDS011;43379;48.160;14.036;2022-07-22T09:13:56;17.13;;;15.73;;
57551;SDS011;43379;48.160;14.036;2022-07-22T09:19:05;13.67;;;12.67;;
57551;SDS011;43379;48.160;14.036;2022-07-22T09:21:32;15.33;;;13.97;;
57551;SDS011;43379;48.160;14.036;2022-07-22T09:24:00;14.17;;;12.90;;
57551;SDS011;43379;48.160;14.036;2022-07-22T09:26:30;13.50;;;12.30;;
57551;SDS011;43379;48.160;14.036;2022-07-22T09:28:57;13.70;;;12.60;;
57551;SDS011;43379;48.160;14.036;2022-07-22T09:31:27;12.27;;;11.37;;
57551;SDS011;43379;48.160;14.036;2022-07-22T09:33:55;14.30;;;13.00;;
57551;SDS011;43379;48.160;14.036;2022-07-22T09:36:22;12.90;;;11.80;;
57551;SDS011;43379;48.160;14.036;2022-07-22T09:38:48;12.80;;;11.97;;
57551;SDS011;43379;48.160;14.036;2022-07-22T09:41:13;11.77;;;10.83;;
57551;SDS011;43379;48.160;14.036;2022-07-22T09:43:39;19.80;;;12.80;;
57551;SDS011;43379;48.160;14.036;2022-07-22T09:46:05;14.00;;;12.50;;
57551;SDS011;43379;48.160;14.036;2022-07-22T09:48:31;12.90;;;12.07;;
57551;SDS011;43379;48.160;14.036;2022-07-22T09:50:58;13.27;;;11.37;;
57551;SDS011;43379;48.160;14.036;2022-07-22T09:53:24;12.27;;;11.37;;
57551;SDS011;43379;48.160;14.036;2022-07-22T09:55:55;11.70;;;10.90;;
57551;SDS011;43379;48.160;14.036;2022-07-22T09:58:21;11.77;;;10.87;;
57551;SDS011;43379;48.160;14.036;2022-07-22T10:00:47;13.00;;;12.03;;
57551;SDS011;43379;48.160;14.036;2022-07-22T10:03:27;13.13;;;11.97;;
57551;SDS011;43379;48.160;14.036;2022-07-22T10:05:55;12.73;;;11.83;;
57551;SDS011;43379;48.160;14.036;2022-07-22T10:08:22;12.90;;;12.00;;
57551;SDS011;43379;48.160;14.036;2022-07-22T10:10:52;13.50;;;12.60;;
57551;SDS011;43379;48.160;14.036;2022-07-22T10:13:23;12.07;;;11.17;;
57551;SDS011;43379;48.160;14.036;2022-07-22T10:15:48;13.23;;;12.17;;
57551;SDS011;43379;48.160;14.036;2022-07-22T10:18:16;11.70;;;10.70;;
57551;SDS011;43379;48.160;14.036;2022-07-22T10:20:44;11.90;;;11.10;;
57551;SDS011;43379;48.160;14.036;2022-07-22T10:23:11;13.30;;;12.20;;
57551;SDS011;43379;48.160;14.036;2022-07-22T10:25:48;13.33;;;12.23;;
57551;SDS011;43379;48.160;14.036;2022-07-22T10:28:25;14.40;;;13.10;;
57551;SDS011;43379;48.160;14.036;2022-07-22T10:33:52;15.00;;;13.73;;
57551;SDS011;43379;48.160;14.036;2022-07-22T10:36:33;13.07;;;11.87;;
57551;SDS011;43379;48.160;14.036;2022-07-22T10:39:04;14.43;;;10.73;;
57551;SDS011;43379;48.160;14.036;2022-07-22T10:41:38;14.23;;;12.10;;
57551;SDS011;43379;48.160;14.036;2022-07-22T10:44:06;12.50;;;11.60;;
57551;SDS011;43379;48.160;14.036;2022-07-22T10:46:51;12.57;;;11.53;;
57551;SDS011;43379;48.160;14.036;2022-07-22T10:49:19;12.47;;;11.47;;
57551;SDS011;43379;48.160;14.036;2022-07-22T10:54:31;11.33;;;10.30;;
57551;SDS011;43379;48.160;14.036;2022-07-22T10:56:58;10.90;;;10.10;;
57551;SDS011;43379;48.160;14.036;2022-07-22T10:59:25;11.87;;;10.97;;
57551;SDS011;43379;48.160;14.036;2022-07-22T11:01:51;11.27;;;10.30;;
57551;SDS011;43379;48.160;14.036;2022-07-22T11:04:23;11.07;;;10.27;;
57551;SDS011;43379;48.160;14.036;2022-07-22T11:06:51;10.47;;;9.67;;
57551;SDS011;43379;48.160;14.036;2022-07-22T11:09:19;11.80;;;10.90;;
57551;SDS011;43379;48.160;14.036;2022-07-22T11:11:50;11.73;;;10.83;;
57551;SDS011;43379;48.160;14.036;2022-07-22T11:16:52;11.13;;;10.23;;
57551;SDS011;43379;48.160;14.036;2022-07-22T11:19:20;10.83;;;9.97;;
57551;SDS011;43379;48.160;14.036;2022-07-22T11:22:01;12.20;;;11.20;;
57551;SDS011;43379;48.160;14.036;2022-07-22T11:24:29;11.40;;;10.60;;
57551;SDS011;43379;48.160;14.036;2022-07-22T11:26:56;12.83;;;11.73;;
57551;SDS011;43379;48.160;14.036;2022-07-22T11:31:53;11.87;;;9.93;;
57551;SDS011;43379;48.160;14.036;2022-07-22T11:34:20;11.13;;;10.23;;
57551;SDS011;43379;48.160;14.036;2022-07-22T11:36:47;10.40;;;9.60;;
57551;SDS011;43379;48.160;14.036;2022-07-22T11:39:17;12.00;;;11.07;;
57551;SDS011;43379;48.160;14.036;2022-07-22T11:41:45;11.20;;;10.23;;
57551;SDS011;43379;48.160;14.036;2022-07-22T11:44:10;12.87;;;10.67;;
57551;SDS011;43379;48.160;14.036;2022-07-22T11:46:40;10.93;;;10.13;;
57551;SDS011;43379;48.160;14.036;2022-07-22T11:49:07;9.90;;;9.10;;
57551;SDS011;43379;48.160;14.036;2022-07-22T11:51:34;9.90;;;9.20;;
57551;SDS011;43379;48.160;14.036;2022-07-22T11:54:02;9.90;;;9.20;;
57551;SDS011;43379;48.160;14.036;2022-07-22T11:56:29;11.37;;;10.17;;
57551;SDS011;43379;48.160;14.036;2022-07-22T11:58:55;10.43;;;9.53;;
57551;SDS011;43379;48.160;14.036;2022-07-22T12:01:28;10.57;;;9.77;;
57551;SDS011;43379;48.160;14.036;2022-07-22T12:03:55;10.67;;;9.60;;
57551;SDS011;43379;48.160;14.036;2022-07-22T12:06:23;10.10;;;9.40;;
57551;SDS011;43379;48.160;14.036;2022-07-22T12:08:51;10.07;;;9.37;;
57551;SDS011;43379;48.160;14.036;2022-07-22T12:11:26;9.83;;;9.07;;
57551;SDS011;43379;48.160;14.036;2022-07-22T12:13:52;10.23;;;9.33;;
57551;SDS011;43379;48.160;14.036;2022-07-22T12:16:22;9.97;;;9.13;;
57551;SDS011;43379;48.160;14.036;2022-07-22T12:18:50;9.80;;;9.10;;
57551;SDS011;43379;48.160;14.036;2022-07-22T12:21:21;10.50;;;9.80;;
57551;SDS011;43379;48.160;14.036;2022-07-22T12:23:56;10.60;;;9.63;;
57551;SDS011;43379;48.160;14.036;2022-07-22T12:26:39;10.77;;;9.90;;
57551;SDS011;43379;48.160;14.036;2022-07-22T12:31:43;10.50;;;9.50;;
57551;SDS011;43379;48.160;14.036;2022-07-22T12:34:10;10.77;;;9.90;;
57551;SDS011;43379;48.160;14.036;2022-07-22T12:36:37;11.43;;;10.53;;
57551;SDS011;43379;48.160;14.036;2022-07-22T12:39:23;11.47;;;10.40;;
57551;SDS011;43379;48.160;14.036;2022-07-22T12:41:52;10.10;;;9.17;;
57551;SDS011;43379;48.160;14.036;2022-07-22T12:44:20;9.67;;;9.07;;
57551;SDS011;43379;48.160;14.036;2022-07-22T12:46:48;9.93;;;9.33;;
57551;SDS011;43379;48.160;14.036;2022-07-22T12:49:20;10.00;;;9.10;;
57551;SDS011;43379;48.160;14.036;2022-07-22T12:54:33;11.23;;;9.80;;
57551;SDS011;43379;48.160;14.036;2022-07-22T12:57:00;10.37;;;9.33;;
57551;SDS011;43379;48.160;14.036;2022-07-22T12:59:26;10.67;;;9.80;;
57551;SDS011;43379;48.160;14.036;2022-07-22T13:01:52;10.33;;;9.50;;
57551;SDS011;43379;48.160;14.036;2022-07-22T13:04:18;9.77;;;9.07;;
57551;SDS011;43379;48.160;14.036;2022-07-22T13:06:43;9.20;;;8.43;;
57551;SDS011;43379;48.160;14.036;2022-07-22T13:09:09;9.87;;;9.07;;
57551;SDS011;43379;48.160;14.036;2022-07-22T13:11:35;9.47;;;8.77;;
57551;SDS011;43379;48.160;14.036;2022-07-22T13:14:05;9.87;;;8.90;;
57551;SDS011;43379;48.160;14.036;2022-07-22T13:16:32;9.07;;;8.40;;
57551;SDS011;43379;48.160;14.036;2022-07-22T13:18:58;9.33;;;8.43;;
57551;SDS011;43379;48.160;14.036;2022-07-22T13:21:23;8.60;;;8.00;;
57551;SDS011;43379;48.160;14.036;2022-07-22T13:23:49;8.00;;;7.40;;
57551;SDS011;43379;48.160;14.036;2022-07-22T13:26:15;10.00;;;9.27;;
57551;SDS011;43379;48.160;14.036;2022-07-22T13:28:41;10.10;;;9.30;;
57551;SDS011;43379;48.160;14.036;2022-07-22T13:31:07;9.37;;;8.77;;
57551;SDS011;43379;48.160;14.036;2022-07-22T13:33:34;10.80;;;9.93;;
57551;SDS011;43379;48.160;14.036;2022-07-22T13:36:00;10.93;;;9.93;;
57551;SDS011;43379;48.160;14.036;2022-07-22T13:38:26;11.20;;;10.20;;
57551;SDS011;43379;48.160;14.036;2022-07-22T13:40:52;11.93;;;10.73;;
57551;SDS011;43379;48.160;14.036;2022-07-22T13:43:18;10.07;;;9.40;;
57551;SDS011;43379;48.160;14.036;2022-07-22T13:45:44;10.73;;;9.93;;
57551;SDS011;43379;48.160;14.036;2022-07-22T13:48:10;10.90;;;9.80;;
57551;SDS011;43379;48.160;14.036;2022-07-22T13:50:36;10.53;;;9.73;;
57551;SDS011;43379;48.160;14.036;2022-07-22T13:53:02;10.37;;;9.67;;
57551;SDS011;43379;48.160;14.036;2022-07-22T13:55:27;10.17;;;9.47;;
57551;SDS011;43379;48.160;14.036;2022-07-22T13:57:55;10.00;;;9.30;;
57551;SDS011;43379;48.160;14.036;2022-07-22T14:00:22;10.60;;;9.80;;
57551;SDS011;43379;48.160;14.036;2022-07-22T14:02:48;11.60;;;9.40;;
57551;SDS011;43379;48.160;14.036;2022-07-22T14:05:14;10.33;;;9.53;;
57551;SDS011;43379;48.160;14.036;2022-07-22T14:07:40;10.40;;;9.70;;
57551;SDS011;43379;48.160;14.036;2022-07-22T14:10:06;9.80;;;9.20;;
57551;SDS011;43379;48.160;14.036;2022-07-22T14:12:32;11.50;;;10.57;;
57551;SDS011;43379;48.160;14.036;2022-07-22T14:14:58;10.37;;;9.57;;
57551;SDS011;43379;48.160;14.036;2022-07-22T14:17:24;11.53;;;10.53;;
57551;SDS011;43379;48.160;14.036;2022-07-22T14:19:49;10.80;;;9.90;;
57551;SDS011;43379;48.160;14.036;2022-07-22T14:22:15;9.10;;;8.20;;
57551;SDS011;43379;48.160;14.036;2022-07-22T14:24:41;9.67;;;8.90;;
57551;SDS011;43379;48.160;14.036;2022-07-22T14:27:06;10.53;;;9.53;;
57551;SDS011;43379;48.160;14.036;2022-07-22T14:29:32;9.90;;;9.20;;
57551;SDS011;43379;48.160;14.036;2022-07-22T14:31:58;10.03;;;9.30;;